Current Weather

Newport State Airport

Newport State Airport, Rhode Island (KUUU)

Report from: Sunday, May 22, 2022 2:53 AM EDT
Current time: Sunday, May 22, 2022 3:38 AM EDT

Nearby weather
Weather history
Weather forecast

Temperature16.7°C (62.1°F)
Dew point15.0°C (59.0°F)
Winds 3 kts (1.5 m/s, 3.5 mph) South-Southwest (200°)
Visibility7 mi. (11.3 km)
Clouds Sky clear
Altimeter30.01 in.Hg (1016 mB)
Relative humidity90 %
Density altitude334 ft. (102 m)
Sea-level pressure101.6 kPa (1016 mB, 30.00 in.Hg)
Remarks Fully automated report
Automated weather observing station with precipitation discriminator
Lightning detection system not operating
Flight conditions Visual Meteorological Conditions
Raw dataKUUU 220653Z AUTO 20003KT 7SM CLR 17/15 A3001 RMK AO2 SLP160 T01670150 TSNO
An error has occurred. This application may no longer respond until reloaded. Reload 🗙